KPOV

Portage County Airport

Ravenna, Ohio, USA
METAR KPOV 100615Z AUTO 00000KT 10SM CLR M08/M08 A3017 RMK AO2 T10761085 PWINO
Observed Flight Rules
Dec-10 @ 06:15 UTC (13 minutes ago) Visual Flight Rules
Visibility Clouds
10 miles
  • Clear skies
Temperatures Readings
Current -8°C / 18°F
Dewpoint -9°C / 16°F
Humidity 93%
Altimeter 30.17" Hg
Pressure 1022 hPa
Elevation 365
METAR KPOV 100615Z AUTO 00000KT 10SM CLR M08/M08 A3017 RMK AO2 T10761085 PWINO
Observed Flight Rules
Dec-10 @ 06:15 UTC
(13 minutes ago)
VFR
Clouds
  • Clear skies
Temperature Dewpoint
-8°C / 18°F -9°C / 16°F
Humidity Altimeter Pressure
93% 30.17" Hg 1022 hPa